sensor_id;sensor_type;location;lat;lon;timestamp;P1;durP1;ratioP1;P2;durP2;ratioP2
64052;SDS011;50299;49.524;8.536;2023-02-05T00:00:18;17.05;;;8.88;;
64052;SDS011;50299;49.524;8.536;2023-02-05T00:02:44;17.33;;;8.48;;
64052;SDS011;50299;49.524;8.536;2023-02-05T00:05:11;13.90;;;7.95;;
64052;SDS011;50299;49.524;8.536;2023-02-05T00:07:37;16.67;;;8.13;;
64052;SDS011;50299;49.524;8.536;2023-02-05T00:10:04;13.52;;;7.20;;
64052;SDS011;50299;49.524;8.536;2023-02-05T00:12:31;15.00;;;7.97;;
64052;SDS011;50299;49.524;8.536;2023-02-05T00:14:57;12.52;;;6.95;;
64052;SDS011;50299;49.524;8.536;2023-02-05T00:17:24;13.35;;;6.93;;
64052;SDS011;50299;49.524;8.536;2023-02-05T00:19:50;119.30;;;21.67;;
64052;SDS011;50299;49.524;8.536;2023-02-05T00:22:16;21.77;;;9.88;;
64052;SDS011;50299;49.524;8.536;2023-02-05T00:24:43;17.75;;;7.22;;
64052;SDS011;50299;49.524;8.536;2023-02-05T00:27:09;9.68;;;6.65;;
64052;SDS011;50299;49.524;8.536;2023-02-05T00:29:35;12.13;;;7.53;;
64052;SDS011;50299;49.524;8.536;2023-02-05T00:32:02;10.98;;;7.38;;
64052;SDS011;50299;49.524;8.536;2023-02-05T00:34:28;14.93;;;8.02;;
64052;SDS011;50299;49.524;8.536;2023-02-05T00:36:54;12.50;;;7.00;;
64052;SDS011;50299;49.524;8.536;2023-02-05T00:39:21;89.72;;;20.70;;
64052;SDS011;50299;49.524;8.536;2023-02-05T00:41:47;231.00;;;28.30;;
64052;SDS011;50299;49.524;8.536;2023-02-05T00:44:14;18.52;;;8.52;;
64052;SDS011;50299;49.524;8.536;2023-02-05T00:46:40;385.10;;;43.50;;
64052;SDS011;50299;49.524;8.536;2023-02-05T00:49:07;58.28;;;14.43;;
64052;SDS011;50299;49.524;8.536;2023-02-05T00:51:33;18.80;;;9.55;;
64052;SDS011;50299;49.524;8.536;2023-02-05T00:53:59;14.75;;;8.05;;
64052;SDS011;50299;49.524;8.536;2023-02-05T00:56:26;14.20;;;6.35;;
64052;SDS011;50299;49.524;8.536;2023-02-05T00:58:52;8.65;;;6.18;;
64052;SDS011;50299;49.524;8.536;2023-02-05T01:01:18;15.07;;;6.65;;
64052;SDS011;50299;49.524;8.536;2023-02-05T01:03:45;12.02;;;6.72;;
64052;SDS011;50299;49.524;8.536;2023-02-05T01:06:11;14.30;;;7.53;;
64052;SDS011;50299;49.524;8.536;2023-02-05T01:08:38;11.77;;;7.85;;
64052;SDS011;50299;49.524;8.536;2023-02-05T01:11:05;17.45;;;8.55;;
64052;SDS011;50299;49.524;8.536;2023-02-05T01:13:34;13.45;;;7.78;;
64052;SDS011;50299;49.524;8.536;2023-02-05T01:16:00;12.85;;;7.53;;
64052;SDS011;50299;49.524;8.536;2023-02-05T01:18:26;8.88;;;6.28;;
64052;SDS011;50299;49.524;8.536;2023-02-05T01:20:53;21.25;;;8.27;;
64052;SDS011;50299;49.524;8.536;2023-02-05T01:23:19;13.77;;;7.03;;
64052;SDS011;50299;49.524;8.536;2023-02-05T01:25:45;30.02;;;8.80;;
64052;SDS011;50299;49.524;8.536;2023-02-05T01:28:12;65.22;;;13.52;;
64052;SDS011;50299;49.524;8.536;2023-02-05T01:30:39;21.52;;;9.13;;
64052;SDS011;50299;49.524;8.536;2023-02-05T01:33:05;44.67;;;13.13;;
64052;SDS011;50299;49.524;8.536;2023-02-05T01:35:32;338.70;;;36.95;;
64052;SDS011;50299;49.524;8.536;2023-02-05T01:37:58;546.13;;;65.82;;
64052;SDS011;50299;49.524;8.536;2023-02-05T01:40:25;234.52;;;33.20;;
64052;SDS011;50299;49.524;8.536;2023-02-05T01:42:51;19.40;;;9.63;;
64052;SDS011;50299;49.524;8.536;2023-02-05T01:48:04;12.93;;;7.30;;
64052;SDS011;50299;49.524;8.536;2023-02-05T01:50:35;14.40;;;8.93;;
64052;SDS011;50299;49.524;8.536;2023-02-05T01:53:10;14.05;;;7.55;;
64052;SDS011;50299;49.524;8.536;2023-02-05T01:55:44;17.58;;;8.05;;
64052;SDS011;50299;49.524;8.536;2023-02-05T01:58:16;12.63;;;6.88;;
64052;SDS011;50299;49.524;8.536;2023-02-05T02:00:43;14.85;;;7.15;;
64052;SDS011;50299;49.524;8.536;2023-02-05T02:03:10;14.07;;;7.05;;
64052;SDS011;50299;49.524;8.536;2023-02-05T02:05:38;16.17;;;6.93;;
64052;SDS011;50299;49.524;8.536;2023-02-05T02:08:04;17.08;;;8.80;;
64052;SDS011;50299;49.524;8.536;2023-02-05T02:10:31;58.03;;;16.17;;
64052;SDS011;50299;49.524;8.536;2023-02-05T02:12:58;42.80;;;12.88;;
64052;SDS011;50299;49.524;8.536;2023-02-05T02:15:26;17.13;;;10.70;;
64052;SDS011;50299;49.524;8.536;2023-02-05T02:17:55;24.95;;;12.48;;
64052;SDS011;50299;49.524;8.536;2023-02-05T02:20:46;13.13;;;8.07;;
64052;SDS011;50299;49.524;8.536;2023-02-05T02:26:26;12.02;;;7.32;;
64052;SDS011;50299;49.524;8.536;2023-02-05T02:29:05;11.98;;;6.95;;
64052;SDS011;50299;49.524;8.536;2023-02-05T02:31:43;14.32;;;8.38;;
64052;SDS011;50299;49.524;8.536;2023-02-05T02:36:55;10.18;;;6.95;;
64052;SDS011;50299;49.524;8.536;2023-02-05T02:39:31;11.80;;;6.72;;
64052;SDS011;50299;49.524;8.536;2023-02-05T02:42:14;11.30;;;7.18;;
64052;SDS011;50299;49.524;8.536;2023-02-05T02:44:47;12.82;;;8.35;;
64052;SDS011;50299;49.524;8.536;2023-02-05T02:47:22;12.82;;;8.52;;
64052;SDS011;50299;49.524;8.536;2023-02-05T02:49:58;10.75;;;6.93;;
64052;SDS011;50299;49.524;8.536;2023-02-05T02:52:29;13.73;;;8.25;;
64052;SDS011;50299;49.524;8.536;2023-02-05T02:55:00;10.80;;;7.85;;
64052;SDS011;50299;49.524;8.536;2023-02-05T02:57:33;10.82;;;8.35;;
64052;SDS011;50299;49.524;8.536;2023-02-05T03:03:01;10.73;;;7.15;;
64052;SDS011;50299;49.524;8.536;2023-02-05T03:05:30;8.38;;;6.95;;
64052;SDS011;50299;49.524;8.536;2023-02-05T03:08:05;10.02;;;7.43;;
64052;SDS011;50299;49.524;8.536;2023-02-05T03:10:39;19.05;;;8.90;;
64052;SDS011;50299;49.524;8.536;2023-02-05T03:13:09;15.38;;;8.70;;
64052;SDS011;50299;49.524;8.536;2023-02-05T03:15:40;15.07;;;8.13;;
64052;SDS011;50299;49.524;8.536;2023-02-05T03:18:08;16.15;;;9.02;;
64052;SDS011;50299;49.524;8.536;2023-02-05T03:20:49;14.32;;;7.75;;
64052;SDS011;50299;49.524;8.536;2023-02-05T03:23:18;13.80;;;8.45;;
64052;SDS011;50299;49.524;8.536;2023-02-05T03:25:44;9.05;;;6.55;;
64052;SDS011;50299;49.524;8.536;2023-02-05T03:28:11;14.27;;;9.45;;
64052;SDS011;50299;49.524;8.536;2023-02-05T03:30:52;7.88;;;6.20;;
64052;SDS011;50299;49.524;8.536;2023-02-05T03:33:31;10.02;;;6.13;;
64052;SDS011;50299;49.524;8.536;2023-02-05T03:36:08;8.18;;;7.05;;
64052;SDS011;50299;49.524;8.536;2023-02-05T03:38:46;8.60;;;6.05;;
64052;SDS011;50299;49.524;8.536;2023-02-05T03:41:26;8.63;;;5.68;;
64052;SDS011;50299;49.524;8.536;2023-02-05T03:44:36;11.00;;;6.57;;
64052;SDS011;50299;49.524;8.536;2023-02-05T03:47:33;10.90;;;5.60;;
64052;SDS011;50299;49.524;8.536;2023-02-05T03:50:21;10.27;;;5.88;;
64052;SDS011;50299;49.524;8.536;2023-02-05T03:52:56;8.73;;;6.10;;
64052;SDS011;50299;49.524;8.536;2023-02-05T03:55:33;9.18;;;5.90;;
64052;SDS011;50299;49.524;8.536;2023-02-05T03:58:12;8.48;;;6.03;;
64052;SDS011;50299;49.524;8.536;2023-02-05T04:00:44;9.73;;;6.25;;
64052;SDS011;50299;49.524;8.536;2023-02-05T04:03:11;11.95;;;6.38;;
64052;SDS011;50299;49.524;8.536;2023-02-05T04:05:38;9.55;;;6.20;;
64052;SDS011;50299;49.524;8.536;2023-02-05T04:08:05;8.18;;;5.50;;
64052;SDS011;50299;49.524;8.536;2023-02-05T04:10:31;8.18;;;7.13;;
64052;SDS011;50299;49.524;8.536;2023-02-05T04:12:58;8.10;;;6.13;;
64052;SDS011;50299;49.524;8.536;2023-02-05T04:15:24;10.27;;;6.47;;
64052;SDS011;50299;49.524;8.536;2023-02-05T04:17:50;8.80;;;6.07;;
64052;SDS011;50299;49.524;8.536;2023-02-05T04:20:17;11.02;;;7.78;;
64052;SDS011;50299;49.524;8.536;2023-02-05T04:22:43;12.90;;;7.53;;
64052;SDS011;50299;49.524;8.536;2023-02-05T04:25:09;8.98;;;5.85;;
64052;SDS011;50299;49.524;8.536;2023-02-05T04:27:36;10.30;;;6.60;;
64052;SDS011;50299;49.524;8.536;2023-02-05T04:30:02;8.07;;;5.43;;
64052;SDS011;50299;49.524;8.536;2023-02-05T04:32:29;9.02;;;6.72;;
64052;SDS011;50299;49.524;8.536;2023-02-05T04:34:55;10.15;;;7.25;;
64052;SDS011;50299;49.524;8.536;2023-02-05T04:37:21;9.68;;;7.53;;
64052;SDS011;50299;49.524;8.536;2023-02-05T04:39:48;10.35;;;7.65;;
64052;SDS011;50299;49.524;8.536;2023-02-05T04:42:14;14.35;;;8.45;;
64052;SDS011;50299;49.524;8.536;2023-02-05T04:44:40;8.68;;;6.00;;
64052;SDS011;50299;49.524;8.536;2023-02-05T04:47:07;8.30;;;5.10;;
64052;SDS011;50299;49.524;8.536;2023-02-05T04:49:33;7.30;;;6.05;;
64052;SDS011;50299;49.524;8.536;2023-02-05T04:52:00;5.93;;;5.38;;
64052;SDS011;50299;49.524;8.536;2023-02-05T04:54:26;8.07;;;5.82;;
64052;SDS011;50299;49.524;8.536;2023-02-05T04:56:53;8.25;;;6.10;;
64052;SDS011;50299;49.524;8.536;2023-02-05T04:59:19;9.13;;;6.32;;
64052;SDS011;50299;49.524;8.536;2023-02-05T05:01:46;10.40;;;5.90;;
64052;SDS011;50299;49.524;8.536;2023-02-05T05:04:12;6.10;;;5.20;;
64052;SDS011;50299;49.524;8.536;2023-02-05T05:06:38;5.97;;;4.60;;
64052;SDS011;50299;49.524;8.536;2023-02-05T05:09:05;6.25;;;4.35;;
64052;SDS011;50299;49.524;8.536;2023-02-05T05:11:31;6.18;;;4.88;;
64052;SDS011;50299;49.524;8.536;2023-02-05T05:13:58;7.45;;;4.55;;
64052;SDS011;50299;49.524;8.536;2023-02-05T05:16:24;5.60;;;4.45;;
64052;SDS011;50299;49.524;8.536;2023-02-05T05:18:51;6.30;;;3.83;;
64052;SDS011;50299;49.524;8.536;2023-02-05T05:21:17;7.22;;;4.15;;
64052;SDS011;50299;49.524;8.536;2023-02-05T05:23:44;5.60;;;4.38;;
64052;SDS011;50299;49.524;8.536;2023-02-05T05:26:11;6.80;;;4.78;;
64052;SDS011;50299;49.524;8.536;2023-02-05T05:28:38;7.25;;;4.88;;
64052;SDS011;50299;49.524;8.536;2023-02-05T05:31:06;7.05;;;5.22;;
64052;SDS011;50299;49.524;8.536;2023-02-05T05:33:38;6.82;;;3.88;;
64052;SDS011;50299;49.524;8.536;2023-02-05T05:36:05;6.78;;;4.32;;
64052;SDS011;50299;49.524;8.536;2023-02-05T05:38:32;6.25;;;5.55;;
64052;SDS011;50299;49.524;8.536;2023-02-05T05:40:58;7.55;;;4.32;;
64052;SDS011;50299;49.524;8.536;2023-02-05T05:43:44;8.23;;;5.63;;
64052;SDS011;50299;49.524;8.536;2023-02-05T05:46:20;7.22;;;5.90;;
64052;SDS011;50299;49.524;8.536;2023-02-05T05:48:53;9.80;;;4.90;;
64052;SDS011;50299;49.524;8.536;2023-02-05T05:51:23;9.00;;;5.43;;
64052;SDS011;50299;49.524;8.536;2023-02-05T05:53:51;7.03;;;5.28;;
64052;SDS011;50299;49.524;8.536;2023-02-05T05:56:18;9.32;;;5.85;;
64052;SDS011;50299;49.524;8.536;2023-02-05T05:58:44;10.63;;;5.80;;
64052;SDS011;50299;49.524;8.536;2023-02-05T06:01:13;8.05;;;5.40;;
64052;SDS011;50299;49.524;8.536;2023-02-05T06:06:07;8.68;;;6.07;;
64052;SDS011;50299;49.524;8.536;2023-02-05T06:08:35;6.65;;;4.97;;
64052;SDS011;50299;49.524;8.536;2023-02-05T06:11:01;6.97;;;4.82;;
64052;SDS011;50299;49.524;8.536;2023-02-05T06:13:28;11.45;;;6.65;;
64052;SDS011;50299;49.524;8.536;2023-02-05T06:15:54;11.75;;;6.20;;
64052;SDS011;50299;49.524;8.536;2023-02-05T06:18:21;10.25;;;6.30;;
64052;SDS011;50299;49.524;8.536;2023-02-05T06:20:49;11.57;;;6.65;;
64052;SDS011;50299;49.524;8.536;2023-02-05T06:23:15;12.90;;;6.72;;
64052;SDS011;50299;49.524;8.536;2023-02-05T06:25:41;10.32;;;6.68;;
64052;SDS011;50299;49.524;8.536;2023-02-05T06:28:08;11.88;;;6.55;;
64052;SDS011;50299;49.524;8.536;2023-02-05T06:30:34;10.85;;;8.00;;
64052;SDS011;50299;49.524;8.536;2023-02-05T06:33:00;9.82;;;6.50;;
64052;SDS011;50299;49.524;8.536;2023-02-05T06:35:28;10.25;;;6.97;;
64052;SDS011;50299;49.524;8.536;2023-02-05T06:37:54;9.27;;;6.65;;
64052;SDS011;50299;49.524;8.536;2023-02-05T06:40:20;12.55;;;6.95;;
64052;SDS011;50299;49.524;8.536;2023-02-05T06:42:51;12.13;;;7.45;;
64052;SDS011;50299;49.524;8.536;2023-02-05T06:45:18;13.45;;;7.90;;
64052;SDS011;50299;49.524;8.536;2023-02-05T06:47:44;13.73;;;7.95;;
64052;SDS011;50299;49.524;8.536;2023-02-05T06:50:11;15.50;;;8.35;;
64052;SDS011;50299;49.524;8.536;2023-02-05T06:52:38;12.93;;;8.10;;
64052;SDS011;50299;49.524;8.536;2023-02-05T06:55:04;12.27;;;8.50;;
64052;SDS011;50299;49.524;8.536;2023-02-05T06:57:31;15.05;;;9.07;;
64052;SDS011;50299;49.524;8.536;2023-02-05T06:59:58;14.90;;;10.88;;
64052;SDS011;50299;49.524;8.536;2023-02-05T07:02:24;14.88;;;8.65;;
64052;SDS011;50299;49.524;8.536;2023-02-05T07:04:51;14.23;;;8.65;;
64052;SDS011;50299;49.524;8.536;2023-02-05T07:07:17;20.70;;;9.65;;
64052;SDS011;50299;49.524;8.536;2023-02-05T07:09:43;17.20;;;9.63;;
64052;SDS011;50299;49.524;8.536;2023-02-05T07:12:10;15.85;;;8.90;;
64052;SDS011;50299;49.524;8.536;2023-02-05T07:14:36;15.10;;;10.13;;
64052;SDS011;50299;49.524;8.536;2023-02-05T07:17:03;17.42;;;10.15;;
64052;SDS011;50299;49.524;8.536;2023-02-05T07:19:29;12.40;;;8.93;;
64052;SDS011;50299;49.524;8.536;2023-02-05T07:21:56;13.38;;;9.25;;
64052;SDS011;50299;49.524;8.536;2023-02-05T07:24:22;17.55;;;11.60;;
64052;SDS011;50299;49.524;8.536;2023-02-05T07:26:48;14.23;;;9.88;;
64052;SDS011;50299;49.524;8.536;2023-02-05T07:29:15;14.73;;;10.00;;
64052;SDS011;50299;49.524;8.536;2023-02-05T07:31:41;71.38;;;16.35;;
64052;SDS011;50299;49.524;8.536;2023-02-05T07:34:08;16.33;;;10.77;;
64052;SDS011;50299;49.524;8.536;2023-02-05T07:36:34;14.68;;;10.07;;
64052;SDS011;50299;49.524;8.536;2023-02-05T07:39:00;30.08;;;11.60;;
64052;SDS011;50299;49.524;8.536;2023-02-05T07:41:27;17.70;;;11.35;;
64052;SDS011;50299;49.524;8.536;2023-02-05T07:43:54;15.75;;;10.23;;
64052;SDS011;50299;49.524;8.536;2023-02-05T07:46:21;18.35;;;10.88;;
64052;SDS011;50299;49.524;8.536;2023-02-05T07:48:47;20.20;;;10.63;;
64052;SDS011;50299;49.524;8.536;2023-02-05T07:51:20;17.95;;;10.57;;
64052;SDS011;50299;49.524;8.536;2023-02-05T07:53:47;12.85;;;9.48;;
64052;SDS011;50299;49.524;8.536;2023-02-05T07:56:14;19.35;;;11.85;;
64052;SDS011;50299;49.524;8.536;2023-02-05T07:58:41;21.33;;;11.98;;
64052;SDS011;50299;49.524;8.536;2023-02-05T08:01:08;18.63;;;10.75;;
64052;SDS011;50299;49.524;8.536;2023-02-05T08:03:34;15.43;;;10.90;;
64052;SDS011;50299;49.524;8.536;2023-02-05T08:06:04;13.18;;;9.85;;
64052;SDS011;50299;49.524;8.536;2023-02-05T08:08:32;17.20;;;10.65;;
64052;SDS011;50299;49.524;8.536;2023-02-05T08:10:59;16.42;;;11.00;;
64052;SDS011;50299;49.524;8.536;2023-02-05T08:13:27;15.95;;;10.77;;
64052;SDS011;50299;49.524;8.536;2023-02-05T08:15:54;16.10;;;10.25;;
64052;SDS011;50299;49.524;8.536;2023-02-05T08:18:20;12.75;;;10.20;;
64052;SDS011;50299;49.524;8.536;2023-02-05T08:20:47;18.15;;;10.25;;
64052;SDS011;50299;49.524;8.536;2023-02-05T08:23:17;18.58;;;12.10;;
64052;SDS011;50299;49.524;8.536;2023-02-05T08:25:43;13.00;;;10.13;;
64052;SDS011;50299;49.524;8.536;2023-02-05T08:28:10;20.27;;;10.57;;
64052;SDS011;50299;49.524;8.536;2023-02-05T08:30:37;14.05;;;10.65;;
64052;SDS011;50299;49.524;8.536;2023-02-05T08:33:04;17.50;;;10.30;;
64052;SDS011;50299;49.524;8.536;2023-02-05T08:35:30;16.42;;;11.77;;
64052;SDS011;50299;49.524;8.536;2023-02-05T08:37:57;19.27;;;12.60;;
64052;SDS011;50299;49.524;8.536;2023-02-05T08:40:23;17.42;;;11.25;;
64052;SDS011;50299;49.524;8.536;2023-02-05T08:42:50;15.40;;;11.23;;
64052;SDS011;50299;49.524;8.536;2023-02-05T08:45:18;19.40;;;11.60;;
64052;SDS011;50299;49.524;8.536;2023-02-05T08:47:44;18.33;;;12.20;;
64052;SDS011;50299;49.524;8.536;2023-02-05T08:50:11;19.50;;;11.80;;
64052;SDS011;50299;49.524;8.536;2023-02-05T08:52:37;18.77;;;12.68;;
64052;SDS011;50299;49.524;8.536;2023-02-05T08:55:03;21.08;;;11.98;;
64052;SDS011;50299;49.524;8.536;2023-02-05T08:57:30;19.92;;;13.40;;
64052;SDS011;50299;49.524;8.536;2023-02-05T08:59:56;19.52;;;11.82;;
64052;SDS011;50299;49.524;8.536;2023-02-05T09:02:23;23.70;;;14.10;;
64052;SDS011;50299;49.524;8.536;2023-02-05T09:04:53;21.50;;;12.30;;
64052;SDS011;50299;49.524;8.536;2023-02-05T09:07:33;22.42;;;12.50;;
64052;SDS011;50299;49.524;8.536;2023-02-05T09:10:00;17.85;;;12.75;;
64052;SDS011;50299;49.524;8.536;2023-02-05T09:12:27;18.00;;;11.63;;
64052;SDS011;50299;49.524;8.536;2023-02-05T09:14:53;18.27;;;12.70;;
64052;SDS011;50299;49.524;8.536;2023-02-05T09:17:20;20.10;;;13.25;;
64052;SDS011;50299;49.524;8.536;2023-02-05T09:19:46;20.77;;;12.60;;
64052;SDS011;50299;49.524;8.536;2023-02-05T09:22:12;17.55;;;12.23;;
64052;SDS011;50299;49.524;8.536;2023-02-05T09:24:39;16.23;;;12.02;;
64052;SDS011;50299;49.524;8.536;2023-02-05T09:27:05;18.08;;;12.55;;
64052;SDS011;50299;49.524;8.536;2023-02-05T09:29:32;19.02;;;12.50;;
64052;SDS011;50299;49.524;8.536;2023-02-05T09:31:58;17.60;;;12.40;;
64052;SDS011;50299;49.524;8.536;2023-02-05T09:34:24;20.10;;;13.63;;
64052;SDS011;50299;49.524;8.536;2023-02-05T09:36:51;20.40;;;13.63;;
64052;SDS011;50299;49.524;8.536;2023-02-05T09:39:17;28.90;;;16.23;;
64052;SDS011;50299;49.524;8.536;2023-02-05T09:42:07;23.27;;;14.32;;
64052;SDS011;50299;49.524;8.536;2023-02-05T09:45:02;21.70;;;13.68;;
64052;SDS011;50299;49.524;8.536;2023-02-05T09:48:19;21.48;;;12.20;;
64052;SDS011;50299;49.524;8.536;2023-02-05T09:51:04;81.00;;;19.65;;
64052;SDS011;50299;49.524;8.536;2023-02-05T09:53:36;25.30;;;15.05;;
64052;SDS011;50299;49.524;8.536;2023-02-05T09:56:07;136.50;;;23.40;;
64052;SDS011;50299;49.524;8.536;2023-02-05T09:58:38;79.93;;;22.15;;
64052;SDS011;50299;49.524;8.536;2023-02-05T10:01:22;22.48;;;15.25;;
64052;SDS011;50299;49.524;8.536;2023-02-05T10:04:02;26.25;;;15.20;;
64052;SDS011;50299;49.524;8.536;2023-02-05T10:06:46;61.53;;;20.00;;
64052;SDS011;50299;49.524;8.536;2023-02-05T10:12:04;28.63;;;15.48;;
64052;SDS011;50299;49.524;8.536;2023-02-05T10:15:02;24.08;;;15.38;;
64052;SDS011;50299;49.524;8.536;2023-02-05T10:17:36;29.83;;;16.40;;
64052;SDS011;50299;49.524;8.536;2023-02-05T10:22:59;26.10;;;14.00;;
64052;SDS011;50299;49.524;8.536;2023-02-05T10:31:41;26.42;;;16.02;;
64052;SDS011;50299;49.524;8.536;2023-02-05T10:37:14;21.00;;;14.63;;
64052;SDS011;50299;49.524;8.536;2023-02-05T10:39:44;25.75;;;17.17;;
64052;SDS011;50299;49.524;8.536;2023-02-05T10:44:49;23.80;;;15.20;;
64052;SDS011;50299;49.524;8.536;2023-02-05T10:50:17;22.73;;;15.52;;
64052;SDS011;50299;49.524;8.536;2023-02-05T10:55:16;25.23;;;15.25;;
64052;SDS011;50299;49.524;8.536;2023-02-05T10:57:43;22.25;;;14.90;;
64052;SDS011;50299;49.524;8.536;2023-02-05T11:00:14;28.50;;;17.80;;
64052;SDS011;50299;49.524;8.536;2023-02-05T11:02:45;25.95;;;16.27;;
64052;SDS011;50299;49.524;8.536;2023-02-05T11:05:19;23.42;;;15.98;;
64052;SDS011;50299;49.524;8.536;2023-02-05T11:07:57;25.02;;;15.90;;
64052;SDS011;50299;49.524;8.536;2023-02-05T11:10:27;26.40;;;16.92;;
64052;SDS011;50299;49.524;8.536;2023-02-05T11:12:56;32.38;;;18.58;;
64052;SDS011;50299;49.524;8.536;2023-02-05T11:15:54;28.65;;;18.75;;
64052;SDS011;50299;49.524;8.536;2023-02-05T11:18:28;29.60;;;17.52;;
64052;SDS011;50299;49.524;8.536;2023-02-05T11:21:01;28.67;;;16.92;;
64052;SDS011;50299;49.524;8.536;2023-02-05T11:23:29;27.73;;;17.73;;
64052;SDS011;50299;49.524;8.536;2023-02-05T11:25:59;51.95;;;20.98;;
64052;SDS011;50299;49.524;8.536;2023-02-05T11:28:33;102.38;;;28.95;;
64052;SDS011;50299;49.524;8.536;2023-02-05T11:31:17;40.92;;;21.77;;
64052;SDS011;50299;49.524;8.536;2023-02-05T11:33:45;376.23;;;53.33;;
64052;SDS011;50299;49.524;8.536;2023-02-05T11:36:20;744.92;;;69.07;;
64052;SDS011;50299;49.524;8.536;2023-02-05T11:41:26;1612.82;;;196.27;;
64052;SDS011;50299;49.524;8.536;2023-02-05T11:43:56;1999.90;;;262.45;;
64052;SDS011;50299;49.524;8.536;2023-02-05T11:46:25;1903.68;;;252.55;;
64052;SDS011;50299;49.524;8.536;2023-02-05T11:48:55;646.28;;;70.50;;
64052;SDS011;50299;49.524;8.536;2023-02-05T11:54:05;987.22;;;122.30;;
64052;SDS011;50299;49.524;8.536;2023-02-05T11:56:42;564.90;;;55.28;;
64052;SDS011;50299;49.524;8.536;2023-02-05T11:59:20;454.88;;;46.90;;
64052;SDS011;50299;49.524;8.536;2023-02-05T12:01:47;1999.90;;;298.77;;
64052;SDS011;50299;49.524;8.536;2023-02-05T12:04:16;1283.40;;;165.93;;
64052;SDS011;50299;49.524;8.536;2023-02-05T12:06:48;1953.55;;;261.80;;
64052;SDS011;50299;49.524;8.536;2023-02-05T12:09:21;837.05;;;93.28;;
64052;SDS011;50299;49.524;8.536;2023-02-05T12:11:52;1539.63;;;162.63;;
64052;SDS011;50299;49.524;8.536;2023-02-05T12:17:06;887.78;;;93.50;;
64052;SDS011;50299;49.524;8.536;2023-02-05T12:22:40;890.15;;;95.85;;
64052;SDS011;50299;49.524;8.536;2023-02-05T12:33:55;37.67;;;20.80;;
64052;SDS011;50299;49.524;8.536;2023-02-05T12:36:49;85.53;;;24.80;;
64052;SDS011;50299;49.524;8.536;2023-02-05T12:47:49;188.05;;;38.40;;
64052;SDS011;50299;49.524;8.536;2023-02-05T12:56:30;191.88;;;41.50;;
64052;SDS011;50299;49.524;8.536;2023-02-05T13:02:10;71.18;;;26.52;;
64052;SDS011;50299;49.524;8.536;2023-02-05T13:08:12;102.45;;;25.15;;
64052;SDS011;50299;49.524;8.536;2023-02-05T13:10:49;92.15;;;25.45;;
64052;SDS011;50299;49.524;8.536;2023-02-05T13:13:34;40.90;;;22.45;;
64052;SDS011;50299;49.524;8.536;2023-02-05T13:16:11;46.85;;;22.73;;
64052;SDS011;50299;49.524;8.536;2023-02-05T13:18:43;37.05;;;21.40;;
64052;SDS011;50299;49.524;8.536;2023-02-05T13:21:16;175.98;;;27.48;;
64052;SDS011;50299;49.524;8.536;2023-02-05T13:24:19;906.05;;;112.60;;
64052;SDS011;50299;49.524;8.536;2023-02-05T13:27:31;1999.90;;;243.38;;
64052;SDS011;50299;49.524;8.536;2023-02-05T13:30:21;449.55;;;57.88;;
64052;SDS011;50299;49.524;8.536;2023-02-05T13:32:54;830.92;;;91.65;;
64052;SDS011;50299;49.524;8.536;2023-02-05T13:35:23;139.02;;;32.08;;
64052;SDS011;50299;49.524;8.536;2023-02-05T13:38:15;203.95;;;37.45;;
64052;SDS011;50299;49.524;8.536;2023-02-05T13:46:26;29.60;;;19.13;;
64052;SDS011;50299;49.524;8.536;2023-02-05T13:52:15;1933.65;;;236.02;;
64052;SDS011;50299;49.524;8.536;2023-02-05T14:00:15;1602.57;;;211.75;;
64052;SDS011;50299;49.524;8.536;2023-02-05T14:02:44;1010.53;;;110.00;;
64052;SDS011;50299;49.524;8.536;2023-02-05T14:05:13;1235.97;;;144.23;;
64052;SDS011;50299;49.524;8.536;2023-02-05T14:13:25;1999.90;;;352.13;;
64052;SDS011;50299;49.524;8.536;2023-02-05T14:23:55;289.17;;;52.25;;
64052;SDS011;50299;49.524;8.536;2023-02-05T14:32:11;26.85;;;16.65;;
64052;SDS011;50299;49.524;8.536;2023-02-05T14:37:04;53.58;;;21.10;;
64052;SDS011;50299;49.524;8.536;2023-02-05T14:39:47;32.15;;;18.90;;
64052;SDS011;50299;49.524;8.536;2023-02-05T14:42:16;26.88;;;18.02;;
64052;SDS011;50299;49.524;8.536;2023-02-05T14:44:45;51.50;;;20.30;;
64052;SDS011;50299;49.524;8.536;2023-02-05T14:47:20;26.83;;;17.05;;
64052;SDS011;50299;49.524;8.536;2023-02-05T14:49:51;25.45;;;17.00;;
64052;SDS011;50299;49.524;8.536;2023-02-05T15:00:27;16.83;;;14.07;;
64052;SDS011;50299;49.524;8.536;2023-02-05T15:02:58;19.95;;;12.25;;
64052;SDS011;50299;49.524;8.536;2023-02-05T15:05:35;17.05;;;11.18;;
64052;SDS011;50299;49.524;8.536;2023-02-05T15:08:14;16.63;;;11.73;;
64052;SDS011;50299;49.524;8.536;2023-02-05T15:10:47;19.13;;;12.30;;
64052;SDS011;50299;49.524;8.536;2023-02-05T15:13:29;17.77;;;11.77;;
64052;SDS011;50299;49.524;8.536;2023-02-05T15:18:39;26.38;;;14.35;;
64052;SDS011;50299;49.524;8.536;2023-02-05T15:21:13;22.52;;;14.48;;
64052;SDS011;50299;49.524;8.536;2023-02-05T15:23:45;19.05;;;13.23;;
64052;SDS011;50299;49.524;8.536;2023-02-05T15:29:13;22.02;;;13.48;;
64052;SDS011;50299;49.524;8.536;2023-02-05T15:31:47;21.58;;;13.50;;
64052;SDS011;50299;49.524;8.536;2023-02-05T15:37:14;28.73;;;14.82;;
64052;SDS011;50299;49.524;8.536;2023-02-05T15:40:07;25.90;;;13.07;;
64052;SDS011;50299;49.524;8.536;2023-02-05T15:45:24;23.60;;;13.25;;
64052;SDS011;50299;49.524;8.536;2023-02-05T15:48:22;15.75;;;10.18;;
64052;SDS011;50299;49.524;8.536;2023-02-05T15:50:58;18.60;;;10.50;;
64052;SDS011;50299;49.524;8.536;2023-02-05T15:53:38;18.38;;;11.23;;
64052;SDS011;50299;49.524;8.536;2023-02-05T15:58:50;21.50;;;10.65;;
64052;SDS011;50299;49.524;8.536;2023-02-05T16:01:34;20.33;;;10.13;;
64052;SDS011;50299;49.524;8.536;2023-02-05T16:04:32;23.25;;;12.90;;
64052;SDS011;50299;49.524;8.536;2023-02-05T16:06:59;18.08;;;11.30;;
64052;SDS011;50299;49.524;8.536;2023-02-05T16:09:27;18.08;;;10.60;;
64052;SDS011;50299;49.524;8.536;2023-02-05T16:11:56;17.95;;;10.57;;
64052;SDS011;50299;49.524;8.536;2023-02-05T16:14:34;15.18;;;10.30;;
64052;SDS011;50299;49.524;8.536;2023-02-05T16:17:15;19.73;;;12.30;;
64052;SDS011;50299;49.524;8.536;2023-02-05T16:19:44;17.23;;;10.20;;
64052;SDS011;50299;49.524;8.536;2023-02-05T16:22:16;15.82;;;10.60;;
64052;SDS011;50299;49.524;8.536;2023-02-05T16:24:51;20.10;;;11.02;;
64052;SDS011;50299;49.524;8.536;2023-02-05T16:27:29;17.50;;;9.65;;
64052;SDS011;50299;49.524;8.536;2023-02-05T16:30:02;15.43;;;9.80;;
64052;SDS011;50299;49.524;8.536;2023-02-05T16:32:37;12.60;;;8.77;;
64052;SDS011;50299;49.524;8.536;2023-02-05T16:35:11;16.88;;;9.80;;
64052;SDS011;50299;49.524;8.536;2023-02-05T16:37:52;16.65;;;9.68;;
64052;SDS011;50299;49.524;8.536;2023-02-05T16:40:35;21.77;;;10.90;;
64052;SDS011;50299;49.524;8.536;2023-02-05T16:43:16;17.67;;;11.27;;
64052;SDS011;50299;49.524;8.536;2023-02-05T16:48:31;20.50;;;10.23;;
64052;SDS011;50299;49.524;8.536;2023-02-05T16:51:00;21.08;;;10.77;;
64052;SDS011;50299;49.524;8.536;2023-02-05T16:53:27;24.35;;;12.05;;
64052;SDS011;50299;49.524;8.536;2023-02-05T16:55:56;24.52;;;12.65;;
64052;SDS011;50299;49.524;8.536;2023-02-05T16:58:31;27.20;;;12.27;;
64052;SDS011;50299;49.524;8.536;2023-02-05T17:01:02;23.15;;;13.43;;
64052;SDS011;50299;49.524;8.536;2023-02-05T17:03:31;26.48;;;13.98;;
64052;SDS011;50299;49.524;8.536;2023-02-05T17:06:01;28.13;;;13.73;;